Time;durP1;ratioP1;P1;durP2;ratioP2;P2;SDS_P1;SDS_P2;PMS_P1;PMS_P2;Temp;Humidity;BMP_temperature;BMP_pressure;BME280_temperature;BME280_humidity;BME280_pressure;Samples;Min_cycle;Max_cycle;Signal;HPM_P1;HPM_P2
2023/05/07 00:02:22;;;;;;;39.10;25.92;;;12.60;99.90;;;;;;5093860;28;20068;-77
2023/05/07 00:04:48;;;;;;;38.13;25.13;;;12.80;99.90;;;;;;5095371;28;20077;-74
2023/05/07 00:07:14;;;;;;;;;;;11.90;99.90;;;;;;5095597;28;20657;-72
2023/05/07 00:09:40;;;;;;;38.00;25.48;;;11.80;99.90;;;;;;5095263;28;19946;-71
2023/05/07 00:12:06;;;;;;;35.65;24.55;;;11.70;99.90;;;;;;5095155;28;20482;-70
2023/05/07 00:14:31;;;;;;;;;;;12.50;99.90;;;;;;5095446;28;20040;-69
2023/05/07 00:16:57;;;;;;;37.35;25.17;;;12.20;99.90;;;;;;5095352;28;20014;-69
2023/05/07 00:19:23;;;;;;;39.10;27.42;;;11.60;99.90;;;;;;5095402;28;20048;-67
2023/05/07 00:21:49;;;;;;;;;;;11.90;99.90;;;;;;5095697;28;20047;-69
2023/05/07 00:24:14;;;;;;;38.38;24.83;;;11.70;99.90;;;;;;5094964;28;19920;-69
2023/05/07 00:26:40;;;;;;;37.25;25.65;;;11.80;99.90;;;;;;5094832;28;20044;-69
2023/05/07 00:29:06;;;;;;;37.50;26.20;;;11.60;99.90;;;;;;5093470;28;20048;-68
2023/05/07 00:31:31;;;;;;;40.47;26.02;;;11.90;99.90;;;;;;5094968;28;20073;-67
2023/05/07 00:33:57;;;;;;;41.47;27.95;;;12.50;99.90;;;;;;5095028;28;20492;-68
2023/05/07 00:36:22;;;;;;;42.85;27.80;;;12.30;99.90;;;;;;5093487;28;20067;-69
2023/05/07 00:38:48;;;;;;;43.03;27.35;;;11.80;99.90;;;;;;5094658;28;20044;-67
2023/05/07 00:41:14;;;;;;;48.90;28.88;;;11.40;99.90;;;;;;5094496;28;20095;-67
2023/05/07 00:43:40;;;;;;;42.97;28.20;;;12.30;99.90;;;;;;5094432;28;20052;-69
2023/05/07 00:46:06;;;;;;;42.58;27.98;;;11.60;99.90;;;;;;5093550;28;20044;-67
2023/05/07 00:48:32;;;;;;;45.83;29.02;;;12.20;99.90;;;;;;5094342;28;20044;-68
2023/05/07 00:50:57;;;;;;;42.80;29.00;;;12.40;99.90;;;;;;5094451;28;20119;-68
2023/05/07 00:53:23;;;;;;;45.13;29.00;;;11.50;99.90;;;;;;5094385;28;20105;-66
2023/05/07 00:55:49;;;;;;;42.00;28.83;;;11.70;99.90;;;;;;5094317;28;20056;-68
2023/05/07 00:58:15;;;;;;;43.28;29.35;;;11.50;99.90;;;;;;5094137;28;20629;-64
2023/05/07 01:00:41;;;;;;;44.63;28.15;;;11.40;99.90;;;;;;5094423;28;20044;-64
2023/05/07 01:03:08;;;;;;;41.97;29.05;;;11.90;99.90;;;;;;5094293;28;20044;-65
2023/05/07 01:05:34;;;;;;;46.38;30.23;;;11.50;99.90;;;;;;5094144;28;20112;-65
2023/05/07 01:08:02;;;;;;;43.90;28.55;;;11.70;99.90;;;;;;5093934;28;20040;-68
2023/05/07 01:10:30;;;;;;;43.38;29.65;;;12.00;99.90;;;;;;5093990;28;20123;-65
2023/05/07 01:12:58;;;;;;;46.63;30.65;;;11.80;99.90;;;;;;5093940;28;20086;-67
2023/05/07 01:15:24;;;;;;;47.00;30.33;;;12.00;99.90;;;;;;5094065;28;20052;-67
2023/05/07 01:17:50;;;;;;;43.42;29.95;;;11.10;99.90;;;;;;5093906;28;20036;-68
2023/05/07 01:20:15;;;;;;;53.65;31.52;;;11.70;99.90;;;;;;5092574;28;20051;-67
2023/05/07 01:22:43;;;;;;;47.70;30.88;;;11.80;99.90;;;;;;5093779;28;20105;-68
2023/05/07 01:25:09;;;;;;;45.85;31.98;;;11.30;99.90;;;;;;5093619;28;20097;-69
2023/05/07 01:27:36;;;;;;;50.50;31.48;;;11.80;99.90;;;;;;5093434;28;20110;-67
2023/05/07 01:30:04;;;;;;;52.90;34.13;;;10.90;99.90;;;;;;5093698;28;20142;-67
2023/05/07 01:32:37;;;;;;;52.75;33.22;;;11.20;99.90;;;;;;5093670;28;20055;-67
2023/05/07 01:35:07;;;;;;;53.67;34.08;;;11.90;99.90;;;;;;5093545;28;20149;-66
2023/05/07 01:37:33;;;;;;;51.33;33.17;;;11.60;99.90;;;;;;5093478;28;20571;-65
2023/05/07 01:39:59;;;;;;;49.75;34.67;;;11.50;99.90;;;;;;5093382;28;20048;-67
2023/05/07 01:42:25;;;;;;;56.40;34.45;;;11.50;99.90;;;;;;5093230;28;20138;-68
2023/05/07 01:44:51;;;;;;;;;;;11.40;99.90;;;;;;5093671;28;20530;-68
2023/05/07 01:47:17;;;;;;;52.20;34.40;;;11.80;99.90;;;;;;5093260;28;20026;-66
2023/05/07 01:49:43;;;;;;;57.50;37.03;;;10.80;99.90;;;;;;5093082;28;20820;-65
2023/05/07 01:52:10;;;;;;;56.28;37.58;;;11.50;99.90;;;;;;5093118;28;20044;-67
2023/05/07 01:54:36;;;;;;;56.45;37.28;;;11.30;99.90;;;;;;5092863;28;20052;-63
2023/05/07 01:57:02;;;;;;;63.58;39.00;;;11.60;99.90;;;;;;5093375;28;20054;-67
2023/05/07 01:59:27;;;;;;;66.07;39.08;;;11.00;99.90;;;;;;5093033;28;20040;-64
2023/05/07 02:01:53;;;;;;;66.88;39.72;;;11.00;99.90;;;;;;5093074;28;20741;-67
2023/05/07 02:04:19;;;;;;;59.08;38.72;;;12.00;99.90;;;;;;5093014;28;20096;-68
2023/05/07 02:06:44;;;;;;;60.70;38.75;;;11.90;99.90;;;;;;5092809;28;20460;-68
2023/05/07 02:09:11;;;;;;;64.03;39.97;;;10.90;99.90;;;;;;5092741;28;20055;-65
2023/05/07 02:11:36;;;;;;;70.35;41.20;;;11.00;99.90;;;;;;5093260;28;20044;-67
2023/05/07 02:14:02;;;;;;;65.78;40.78;;;10.70;99.90;;;;;;5093135;28;20093;-63
2023/05/07 02:16:28;;;;;;;67.50;42.75;;;11.60;99.90;;;;;;5092653;28;20055;-66
2023/05/07 02:18:53;;;;;;;68.35;42.00;;;12.20;99.90;;;;;;5092736;28;20058;-67
2023/05/07 02:21:19;;;;;;;69.45;41.60;;;11.90;99.90;;;;;;5092700;28;20048;-64
2023/05/07 02:23:45;;;;;;;68.57;41.58;;;10.70;99.90;;;;;;5092573;28;20131;-67
2023/05/07 02:26:11;;;;;;;71.45;43.38;;;11.40;99.90;;;;;;5092727;28;20485;-67
2023/05/07 02:28:36;;;;;;;71.90;43.35;;;11.00;99.90;;;;;;5092768;28;20056;-67
2023/05/07 02:31:03;;;;;;;73.50;43.85;;;12.20;99.90;;;;;;5092579;28;20091;-66
2023/05/07 02:33:29;;;;;;;78.90;45.88;;;10.90;99.90;;;;;;5092318;28;20511;-67
2023/05/07 02:35:54;;;;;;;75.78;45.08;;;10.80;99.90;;;;;;5092426;28;20212;-63
2023/05/07 02:38:20;;;;;;;92.63;47.67;;;10.50;99.90;;;;;;5092289;28;20796;-66
2023/05/07 02:40:46;;;;;;;80.43;46.47;;;12.10;99.90;;;;;;5092232;28;20097;-64
2023/05/07 02:43:12;;;;;;;79.57;45.78;;;10.50;99.90;;;;;;5092397;28;20040;-64
2023/05/07 02:45:37;;;;;;;81.15;48.08;;;11.60;99.90;;;;;;5092299;28;20040;-66
2023/05/07 02:48:05;;;;;;;78.75;46.58;;;11.40;99.90;;;;;;5092160;28;20047;-65
2023/05/07 02:50:32;;;;;;;74.78;45.53;;;11.60;99.90;;;;;;5092162;28;20075;-65
2023/05/07 02:52:58;;;;;;;81.63;48.05;;;13.50;99.90;;;;;;5092046;28;20126;-63
2023/05/07 02:55:24;;;;;;;;;;;11.00;99.90;;;;;;5092521;28;20055;-65
2023/05/07 02:57:50;;;;;;;82.45;47.05;;;12.00;99.90;;;;;;5092258;28;20053;-65
2023/05/07 03:00:19;;;;;;;82.68;48.70;;;10.50;99.90;;;;;;5092133;28;20105;-66
2023/05/07 03:02:45;;;;;;;81.38;46.47;;;10.90;99.90;;;;;;5092009;28;20043;-63
2023/05/07 03:05:12;;;;;;;75.18;45.63;;;11.40;99.90;;;;;;5092018;28;20068;-65
2023/05/07 03:07:38;;;;;;;77.32;44.92;;;11.70;99.90;;;;;;5091852;28;20168;-66
2023/05/07 03:10:05;;;;;;;70.80;43.75;;;11.40;99.90;;;;;;5091659;28;20069;-67
2023/05/07 03:12:31;;;;;;;69.88;41.55;;;10.70;99.90;;;;;;5092091;28;20051;-65
2023/05/07 03:14:56;;;;;;;;;;;11.60;99.90;;;;;;5092386;28;20044;-65
2023/05/07 03:17:22;;;;;;;70.18;39.10;;;10.60;99.90;;;;;;5091894;28;19923;-63
2023/05/07 03:19:48;;;;;;;73.22;41.13;;;10.90;99.90;;;;;;5090644;28;20123;-65
2023/05/07 03:22:14;;;;;;;69.57;39.92;;;11.80;99.90;;;;;;5091746;28;20055;-65
2023/05/07 03:24:39;;;;;;;;;;;10.70;99.90;;;;;;5091314;28;20444;-63
2023/05/07 03:27:05;;;;;;;70.20;40.58;;;12.10;99.90;;;;;;5091831;28;20026;-67
2023/05/07 03:29:31;;;;;;;75.72;43.13;;;10.90;99.90;;;;;;5091813;28;20048;-66
2023/05/07 03:31:56;;;;;;;79.47;46.83;;;11.00;99.90;;;;;;5091844;28;20040;-63
2023/05/07 03:34:22;;;;;;;87.10;46.67;;;10.40;99.90;;;;;;5091647;28;20131;-64
2023/05/07 03:36:48;;;;;;;85.22;46.92;;;11.50;99.90;;;;;;5091635;28;20051;-65
2023/05/07 03:39:14;;;;;;;84.85;46.70;;;11.60;99.90;;;;;;5091556;28;20063;-68
2023/05/07 03:41:40;;;;;;;69.22;42.22;;;11.50;99.90;;;;;;5091755;28;20052;-66
2023/05/07 03:44:06;;;;;;;75.47;43.30;;;10.20;99.90;;;;;;5091725;28;20510;-66
2023/05/07 03:46:32;;;;;;;74.45;41.65;;;11.20;99.90;;;;;;5091594;28;20040;-66
2023/05/07 03:48:58;;;;;;;66.82;41.28;;;11.40;99.90;;;;;;5091597;28;20067;-66
2023/05/07 03:51:25;;;;;;;65.43;39.30;;;11.60;99.90;;;;;;5091465;28;20036;-66
2023/05/07 03:53:52;;;;;;;62.92;39.38;;;10.30;99.90;;;;;;5091778;28;20453;-66
2023/05/07 03:56:19;;;;;;;66.80;38.95;;;10.40;99.90;;;;;;5091490;28;20095;-65
2023/05/07 03:58:44;;;;;;;;;;;11.10;99.90;;;;;;5092040;28;20055;-64
2023/05/07 04:01:11;;;;;;;63.20;36.08;;;11.10;99.90;;;;;;5091527;28;19924;-65
2023/05/07 04:03:36;;;;;;;59.70;38.55;;;11.80;99.90;;;;;;5091437;28;20507;-66
2023/05/07 04:06:02;;;;;;;63.25;37.45;;;10.80;99.90;;;;;;5091520;28;20052;-67
2023/05/07 04:08:28;;;;;;;72.03;39.60;;;12.00;99.90;;;;;;5091791;28;20044;-64
2023/05/07 04:10:58;;;;;;;68.05;38.90;;;10.10;99.90;;;;;;5091558;28;20048;-68
2023/05/07 04:13:23;;;;;;;66.78;38.55;;;10.60;99.90;;;;;;5091471;28;20514;-68
2023/05/07 04:15:49;;;;;;;70.50;40.30;;;10.60;99.90;;;;;;5091390;28;20138;-66
2023/05/07 04:18:15;;;;;;;63.20;38.88;;;11.40;99.90;;;;;;5091383;28;20130;-65
2023/05/07 04:20:41;;;;;;;71.90;41.17;;;10.40;99.90;;;;;;5091239;28;20399;-67
2023/05/07 04:23:07;;;;;;;72.28;40.78;;;11.10;99.90;;;;;;5094278;28;20126;-66
2023/05/07 04:25:33;;;;;;;70.50;41.50;;;10.60;99.90;;;;;;5094975;28;20130;-66
2023/05/07 04:27:59;;;;;;;;;;;10.40;99.90;;;;;;5094001;28;20079;-65
2023/05/07 04:30:25;;;;;;;74.07;41.45;;;10.60;99.90;;;;;;5094803;28;20036;-63
2023/05/07 04:32:51;;;;;;;66.20;40.20;;;11.90;99.90;;;;;;5094806;28;20059;-65
2023/05/07 04:35:17;;;;;;;;;;;11.50;99.90;;;;;;5094985;28;20070;-65
2023/05/07 04:37:43;;;;;;;67.07;38.92;;;10.20;99.90;;;;;;5094765;28;19929;-64
2023/05/07 04:40:09;;;;;;;72.43;41.33;;;11.40;99.90;;;;;;5094754;28;20391;-66
2023/05/07 04:42:35;;;;;;;63.40;38.05;;;10.10;99.90;;;;;;5094674;28;20047;-63
2023/05/07 04:45:01;;;;;;;;;;;10.90;99.90;;;;;;5094952;28;20043;-65
2023/05/07 04:47:27;;;;;;;60.13;36.15;;;11.10;99.90;;;;;;5094392;28;19931;-65
2023/05/07 04:49:53;;;;;;;61.55;37.47;;;10.40;99.90;;;;;;5094332;28;20055;-63
2023/05/07 04:52:18;;;;;;;68.18;36.70;;;11.30;99.90;;;;;;5094484;28;20079;-62
2023/05/07 04:54:44;;;;;;;61.13;37.25;;;11.20;99.90;;;;;;5094322;28;20048;-65
2023/05/07 04:57:10;;;;;;;60.53;37.55;;;11.30;99.90;;;;;;5094307;28;20123;-66
2023/05/07 04:59:35;;;;;;;64.88;38.33;;;10.90;99.90;;;;;;5094255;28;20044;-66
2023/05/07 05:02:01;;;;;;;62.78;36.10;;;10.30;99.90;;;;;;5094150;28;20047;-65
2023/05/07 05:04:27;;;;;;;64.72;39.13;;;10.90;99.90;;;;;;5093990;28;20178;-66
2023/05/07 05:06:53;;;;;;;65.28;39.63;;;11.70;99.90;;;;;;5094119;28;20083;-66
2023/05/07 05:09:18;;;;;;;68.45;39.83;;;11.40;99.90;;;;;;5094161;28;20123;-66
2023/05/07 05:11:47;;;;;;;63.50;37.30;;;11.40;99.90;;;;;;5094014;28;20181;-66
2023/05/07 05:14:12;;;;;;;62.15;36.72;;;11.10;99.90;;;;;;5093936;28;20131;-66
2023/05/07 05:16:38;;;;;;;62.20;37.00;;;10.20;99.90;;;;;;5093917;28;20448;-65
2023/05/07 05:19:04;;;;;;;67.80;37.05;;;11.20;99.90;;;;;;5093686;28;20052;-66
2023/05/07 05:21:30;;;;;;;58.25;35.45;;;11.20;99.90;;;;;;5093951;28;20051;-65
2023/05/07 05:23:56;;;;;;;61.05;36.25;;;9.70;99.90;;;;;;5093838;28;20126;-65
2023/05/07 05:26:22;;;;;;;56.38;34.88;;;10.00;99.90;;;;;;5093705;28;20131;-66
2023/05/07 05:28:47;;;;;;;54.80;33.70;;;10.40;99.90;;;;;;5093660;28;20055;-65
2023/05/07 05:31:14;;;;;;;55.60;35.08;;;10.10;99.90;;;;;;5093634;28;20070;-64
2023/05/07 05:33:39;;;;;;;;;;;10.80;99.90;;;;;;5093476;28;20075;-65
2023/05/07 05:36:06;;;;;;;58.70;34.15;;;11.50;99.90;;;;;;5093595;28;19920;-63
2023/05/07 05:38:32;;;;;;;56.45;35.67;;;10.20;99.90;;;;;;5093594;28;20047;-66
2023/05/07 05:40:57;;;;;;;54.42;34.08;;;10.30;99.90;;;;;;5093549;28;20039;-68
2023/05/07 05:43:23;;;;;;;61.65;36.97;;;10.80;99.90;;;;;;5093385;28;20079;-66
2023/05/07 05:45:49;;;;;;;64.10;39.72;;;11.50;99.90;;;;;;5093167;28;20044;-68
2023/05/07 05:48:14;;;;;;;70.72;42.63;;;10.60;99.90;;;;;;5093137;28;20055;-67
2023/05/07 05:50:42;;;;;;;80.07;44.38;;;10.10;99.90;;;;;;5092115;28;20127;-67
2023/05/07 05:53:07;;;;;;;82.88;47.22;;;11.40;99.90;;;;;;5093315;28;20048;-67
2023/05/07 05:55:33;;;;;;;84.18;50.17;;;11.40;99.90;;;;;;5093230;28;20132;-66
2023/05/07 05:58:00;;;;;;;75.72;48.20;;;10.10;99.90;;;;;;5093191;28;20052;-66
2023/05/07 06:00:26;;;;;;;84.40;48.45;;;10.40;99.90;;;;;;5092194;28;20047;-67
2023/05/07 06:02:52;;;;;;;;;;;10.70;99.90;;;;;;5093608;28;20090;-68
2023/05/07 06:05:18;;;;;;;78.03;45.63;;;11.00;99.90;;;;;;5092142;28;19920;-68
2023/05/07 06:07:43;;;;;;;69.55;42.20;;;11.20;99.90;;;;;;5093045;28;20032;-67
2023/05/07 06:10:09;;;;;;;73.30;44.30;;;10.30;99.90;;;;;;5092981;28;20197;-64
2023/05/07 06:12:35;;;;;;;79.63;46.63;;;10.50;99.90;;;;;;5092898;28;20051;-69
2023/05/07 06:15:01;;;;;;;88.28;51.25;;;10.90;99.90;;;;;;5092745;28;20080;-66
2023/05/07 06:17:27;;;;;;;91.88;52.35;;;11.70;99.90;;;;;;5092691;28;20040;-69
2023/05/07 06:19:53;;;;;;;98.03;55.17;;;10.40;99.90;;;;;;5092747;28;20285;-67
2023/05/07 06:22:19;;;;;;;103.30;56.10;;;10.40;99.90;;;;;;5092739;28;20044;-64
2023/05/07 06:24:44;;;;;;;102.57;56.13;;;12.70;99.90;;;;;;5092664;28;20047;-69
2023/05/07 06:27:10;;;;;;;105.72;58.05;;;11.30;99.90;;;;;;5078953;28;21471;-69
2023/05/07 06:29:36;;;;;;;98.38;57.00;;;10.40;99.90;;;;;;5083931;28;20392;-65
2023/05/07 06:32:13;;;;;;;102.10;55.15;;;10.10;99.90;;;;;;5092084;28;20046;-69
2023/05/07 06:34:39;;;;;;;;;;;11.30;99.90;;;;;;5090668;28;20044;-67
2023/05/07 06:37:05;;;;;;;92.50;51.80;;;10.20;99.90;;;;;;5092206;28;19924;-70
2023/05/07 06:39:30;;;;;;;82.55;50.97;;;10.20;99.90;;;;;;5091450;28;20510;-69
2023/05/07 06:41:56;;;;;;;89.40;52.25;;;11.50;99.90;;;;;;5091336;28;20091;-66
2023/05/07 06:44:22;;;;;;;91.35;52.10;;;11.50;99.90;;;;;;5091135;28;20127;-70
2023/05/07 06:46:47;;;;;;;88.93;51.42;;;11.50;99.90;;;;;;5091633;28;20510;-69
2023/05/07 06:49:13;;;;;;;83.50;50.10;;;10.50;99.90;;;;;;5090150;28;20048;-68
2023/05/07 06:51:39;;;;;;;74.78;47.60;;;10.90;99.90;;;;;;5090795;28;20131;-65
2023/05/07 06:54:05;;;;;;;79.13;47.40;;;10.50;99.90;;;;;;5091815;28;20130;-68
2023/05/07 06:56:32;;;;;;;80.68;48.50;;;11.20;99.90;;;;;;5091085;28;20052;-63
2023/05/07 06:58:57;;;;;;;73.50;47.50;;;11.40;99.90;;;;;;5091544;28;20052;-68
2023/05/07 07:01:23;;;;;;;82.10;48.35;;;11.50;99.90;;;;;;5090307;28;20044;-67
2023/05/07 07:03:51;;;;;;;82.22;50.42;;;11.20;99.90;;;;;;5091263;28;20047;-69
2023/05/07 07:06:16;;;;;;;78.72;48.17;;;10.50;99.90;;;;;;5091770;28;20044;-67
2023/05/07 07:08:42;;;;;;;78.43;48.40;;;11.50;99.90;;;;;;5091401;28;20050;-69
2023/05/07 07:11:08;;;;;;;67.43;42.30;;;11.50;99.90;;;;;;5091400;28;20059;-66
2023/05/07 07:13:34;;;;;;;65.10;42.47;;;11.30;99.90;;;;;;5091060;28;20040;-67
2023/05/07 07:16:00;;;;;;;60.60;39.40;;;10.40;99.90;;;;;;5091512;28;20050;-65
2023/05/07 07:18:26;;;;;;;51.88;36.00;;;10.70;99.90;;;;;;5091723;28;20040;-68
2023/05/07 07:20:51;;;;;;;56.70;37.75;;;11.40;99.90;;;;;;5089873;28;20492;-69
2023/05/07 07:23:17;;;;;;;57.13;34.95;;;11.30;99.90;;;;;;5090642;28;20048;-67
2023/05/07 07:25:43;;;;;;;51.58;34.80;;;11.50;99.90;;;;;;5091110;28;20060;-68
2023/05/07 07:28:10;;;;;;;51.72;33.30;;;11.20;99.90;;;;;;5090372;28;20043;-67
2023/05/07 07:30:37;;;;;;;49.38;34.78;;;11.20;99.90;;;;;;5091366;28;20051;-66
2023/05/07 07:33:03;;;;;;;52.92;34.20;;;11.50;99.90;;;;;;5091444;28;20097;-67
2023/05/07 07:35:29;;;;;;;51.63;34.45;;;10.70;99.90;;;;;;5091069;28;20078;-68
2023/05/07 07:37:55;;;;;;;53.50;34.97;;;11.30;99.90;;;;;;5091372;28;20040;-69
2023/05/07 07:40:21;;;;;;;54.05;35.50;;;10.50;99.90;;;;;;5091595;28;20403;-69
2023/05/07 07:42:47;;;;;;;50.65;34.65;;;11.50;99.90;;;;;;5090475;28;20131;-67
2023/05/07 07:45:12;;;;;;;53.05;35.00;;;11.50;99.90;;;;;;5091261;28;20059;-67
2023/05/07 07:47:39;;;;;;;51.20;34.65;;;11.20;99.90;;;;;;5091317;28;20040;-66
2023/05/07 07:50:06;;;;;;;48.03;32.40;;;10.70;99.90;;;;;;5090810;28;20502;-70
2023/05/07 07:52:32;;;;;;;49.53;31.48;;;11.30;99.90;;;;;;5091493;28;20048;-70
2023/05/07 07:54:58;;;;;;;47.33;31.35;;;10.60;99.90;;;;;;5091135;28;20059;-65
2023/05/07 07:57:24;;;;;;;46.63;30.40;;;11.50;99.90;;;;;;5090000;28;20044;-66
2023/05/07 07:59:50;;;;;;;43.80;29.02;;;11.20;99.90;;;;;;5094972;28;20399;-68
2023/05/07 08:02:16;;;;;;;44.80;29.67;;;11.00;99.90;;;;;;5094706;28;20044;-67
2023/05/07 08:04:43;;;;;;;46.08;31.25;;;11.50;99.90;;;;;;5092114;28;20054;-70
2023/05/07 08:07:09;;;;;;;43.05;29.05;;;11.50;99.90;;;;;;5093057;28;20048;-67
2023/05/07 08:09:36;;;;;;;45.30;29.90;;;11.40;99.90;;;;;;5092990;28;20127;-65
2023/05/07 08:12:02;;;;;;;42.85;30.42;;;10.90;99.90;;;;;;5093816;28;20123;-66
2023/05/07 08:14:28;;;;;;;43.63;29.70;;;11.40;99.90;;;;;;5094766;28;20122;-70
2023/05/07 08:16:54;;;;;;;44.47;28.65;;;11.80;99.90;;;;;;5095069;28;20059;-70
2023/05/07 08:19:21;;;;;;;43.15;29.90;;;11.30;99.90;;;;;;5094459;28;20048;-70
2023/05/07 08:21:50;;;;;;;40.58;29.55;;;11.70;99.90;;;;;;5094992;28;20051;-66
2023/05/07 08:24:16;;;;;;;46.17;28.67;;;11.80;99.90;;;;;;5094542;28;20082;-69
2023/05/07 08:26:42;;;;;;;42.17;28.60;;;10.90;99.90;;;;;;5094417;28;20036;-68
2023/05/07 08:29:08;;;;;;;;;;;11.50;99.90;;;;;;5094864;28;20056;-70
2023/05/07 08:31:33;;;;;;;42.72;28.30;;;11.90;99.90;;;;;;5094551;28;19946;-69
2023/05/07 08:33:59;;;;;;;43.17;27.58;;;11.90;99.90;;;;;;5087618;28;20040;-71
2023/05/07 08:36:25;;;;;;;41.15;28.85;;;11.60;99.90;;;;;;5093669;28;20078;-76
2023/05/07 08:38:52;;;;;;;38.00;27.92;;;12.10;99.90;;;;;;5094304;28;20048;-68
2023/05/07 08:41:18;;;;;;;41.40;27.40;;;12.00;99.90;;;;;;5093934;28;20403;-74
2023/05/07 08:43:50;;;;;;;41.85;27.80;;;11.70;99.90;;;;;;5093647;28;20044;-72
2023/05/07 08:46:22;;;;;;;40.28;27.58;;;12.00;99.90;;;;;;5094239;28;20084;-70
2023/05/07 08:48:49;;;;;;;37.95;27.02;;;11.90;99.90;;;;;;5093735;28;20048;-66
2023/05/07 08:51:18;;;;;;;39.35;28.02;;;11.70;99.90;;;;;;5094004;28;20092;-76
2023/05/07 08:53:44;;;;;;;38.83;27.67;;;12.00;99.90;;;;;;5093140;28;20052;-70
2023/05/07 08:56:11;;;;;;;39.47;27.98;;;12.20;99.90;;;;;;5093462;28;20064;-70
2023/05/07 08:58:37;;;;;;;;;;;11.70;99.90;;;;;;5094222;28;20090;-74
2023/05/07 09:01:09;;;;;;;39.85;27.13;;;12.40;99.90;;;;;;5093709;28;19978;-74
2023/05/07 09:03:36;;;;;;;39.00;26.05;;;12.30;99.90;;;;;;5091381;28;20056;-71
2023/05/07 09:06:02;;;;;;;38.72;27.00;;;12.60;99.90;;;;;;5092918;28;20180;-75
2023/05/07 09:08:27;;;;;;;39.90;27.75;;;12.40;99.90;;;;;;5087909;28;20550;-72
2023/05/07 09:10:53;;;;;;;37.45;26.58;;;12.90;99.90;;;;;;5092922;28;20063;-69
2023/05/07 09:13:19;;;;;;;38.28;25.67;;;12.70;99.90;;;;;;5092288;28;20132;-71
2023/05/07 09:15:45;;;;;;;36.67;26.23;;;13.30;99.90;;;;;;5093090;28;20079;-71
2023/05/07 09:18:12;;;;;;;37.80;26.48;;;12.70;99.90;;;;;;5089713;28;20079;-68
2023/05/07 09:20:39;;;;;;;37.10;25.45;;;13.30;99.90;;;;;;5093340;28;20052;-69
2023/05/07 09:23:06;;;;;;;36.08;25.73;;;13.00;99.90;;;;;;5093551;28;20504;-67
2023/05/07 09:25:34;;;;;;;36.22;25.92;;;13.10;99.90;;;;;;5093366;28;20373;-68
2023/05/07 09:28:04;;;;;;;35.83;26.02;;;13.50;99.90;;;;;;5093058;28;20051;-69
2023/05/07 09:30:31;;;;;;;36.28;24.92;;;14.00;99.90;;;;;;5092667;28;20063;-69
2023/05/07 09:32:59;;;;;;;35.83;24.73;;;14.40;99.90;;;;;;5093366;28;20117;-69
2023/05/07 09:35:27;;;;;;;32.30;24.85;;;14.00;99.90;;;;;;5093295;28;20059;-68
2023/05/07 09:37:57;;;;;;;32.42;23.85;;;14.30;99.90;;;;;;5092100;28;20051;-69
2023/05/07 09:40:27;;;;;;;33.40;24.70;;;14.40;99.90;;;;;;5092160;28;20269;-69
2023/05/07 09:42:53;;;;;;;31.35;23.83;;;14.60;99.90;;;;;;5092641;28;20051;-69
2023/05/07 09:45:26;;;;;;;;;;;14.30;99.90;;;;;;5093336;28;20127;-69
2023/05/07 09:47:58;;;;;;;32.25;23.55;;;14.60;99.90;;;;;;5092053;28;20303;-67
2023/05/07 09:50:30;;;;;;;30.35;23.60;;;15.10;99.90;;;;;;5093228;28;20134;-67
2023/05/07 09:52:56;;;;;;;33.35;24.05;;;15.00;99.90;;;;;;5093360;28;20048;-67
2023/05/07 09:55:23;;;;;;;33.83;24.35;;;15.10;99.90;;;;;;5092630;28;20063;-66
2023/05/07 09:57:53;;;;;;;31.58;24.45;;;14.80;99.90;;;;;;5092929;28;20051;-67
2023/05/07 10:00:21;;;;;;;29.27;23.27;;;15.40;99.90;;;;;;5093071;28;20488;-68
2023/05/07 10:02:49;;;;;;;31.85;23.75;;;14.90;99.90;;;;;;5092462;28;20052;-70
2023/05/07 10:05:16;;;;;;;34.03;23.65;;;15.40;99.90;;;;;;5092687;28;20586;-67
2023/05/07 10:07:43;;;;;;;29.52;22.88;;;15.10;99.90;;;;;;5092546;28;20051;-70
2023/05/07 10:10:09;;;;;;;29.15;22.15;;;15.40;99.90;;;;;;5092963;28;20452;-68
2023/05/07 10:12:38;;;;;;;;;;;15.70;99.90;;;;;;5092877;28;20158;-69
2023/05/07 10:15:12;;;;;;;31.00;23.75;;;15.80;99.90;;;;;;5092741;28;19931;-72
2023/05/07 10:17:39;;;;;;;31.50;23.25;;;15.50;99.90;;;;;;5092509;28;20507;-68
2023/05/07 10:20:06;;;;;;;30.42;22.33;;;16.00;99.90;;;;;;5092489;28;20054;-69
2023/05/07 10:22:44;;;;;;;29.45;22.02;;;15.70;99.90;;;;;;5108275;28;20152;-69
2023/05/07 10:25:15;;;;;;;30.05;23.15;;;16.00;99.90;;;;;;5092197;28;20051;-70
2023/05/07 10:27:43;;;;;;;30.35;22.23;;;16.20;99.90;;;;;;5092558;28;20044;-71
2023/05/07 10:30:35;;;;;;;28.30;21.75;;;15.70;99.90;;;;;;5092195;28;20073;-69
2023/05/07 10:33:05;;;;;;;29.02;22.30;;;16.10;99.90;;;;;;5085710;28;20083;-74
2023/05/07 10:35:37;;;;;;;26.58;22.13;;;16.00;99.90;;;;;;5091958;28;20051;-73
2023/05/07 10:38:04;;;;;;;27.30;21.55;;;16.00;99.90;;;;;;5091932;28;20538;-76
2023/05/07 10:40:31;;;;;;;29.95;22.48;;;16.00;99.90;;;;;;5091387;28;20157;-71
2023/05/07 10:43:05;;;;;;;26.58;21.40;;;16.20;99.90;;;;;;5076627;28;20044;-69
2023/05/07 10:45:31;;;;;;;29.38;21.83;;;16.40;99.90;;;;;;5072701;28;20056;-72
2023/05/07 10:48:16;;;;;;;27.90;21.85;;;16.40;99.90;;;;;;5071626;28;20059;-72
2023/05/07 10:50:45;;;;;;;26.63;21.30;;;16.30;99.90;;;;;;5071339;28;20114;-69
2023/05/07 10:53:17;;;;;;;29.50;21.30;;;16.00;99.90;;;;;;5073271;28;20048;-68
2023/05/07 10:55:44;;;;;;;28.63;22.60;;;16.10;99.90;;;;;;5090843;28;20399;-71
2023/05/07 10:58:22;;;;;;;30.75;23.98;;;16.10;99.90;;;;;;5091266;28;20054;-68
2023/05/07 11:00:51;;;;;;;27.40;21.40;;;15.80;99.90;;;;;;5090684;28;20051;-70
2023/05/07 11:03:17;;;;;;;26.25;20.63;;;16.60;99.90;;;;;;5090529;28;20048;-68
2023/05/07 11:05:42;;;;;;;;;;;16.20;99.90;;;;;;5089327;28;20044;-71
2023/05/07 11:08:09;;;;;;;29.23;20.83;;;16.00;99.90;;;;;;5088575;28;19946;-68
2023/05/07 11:10:56;;;;;;;25.40;20.23;;;16.50;99.90;;;;;;5087564;28;20134;-69
2023/05/07 11:13:42;;;;;;;26.30;20.05;;;16.70;99.90;;;;;;5087557;28;20048;-78
2023/05/07 11:16:18;;;;;;;27.48;20.77;;;17.00;99.90;;;;;;5087139;28;20129;-72
2023/05/07 11:18:49;;;;;;;25.10;19.83;;;16.90;99.90;;;;;;5070123;28;20401;-74
2023/05/07 11:21:38;;;;;;;24.48;20.00;;;16.30;99.90;;;;;;5070911;28;20052;-76
2023/05/07 11:24:10;;;;;;;23.55;20.00;;;16.70;99.90;;;;;;5071235;28;20052;-72
2023/05/07 11:26:51;;;;;;;23.38;19.85;;;17.00;99.90;;;;;;5078660;28;20044;-71
2023/05/07 11:29:19;;;;;;;23.27;19.52;;;17.20;99.90;;;;;;5091034;28;20506;-70
2023/05/07 11:31:49;;;;;;;25.65;20.60;;;17.00;99.90;;;;;;5093972;28;20048;-70
2023/05/07 11:34:20;;;;;;;24.67;19.30;;;17.00;99.90;;;;;;5095466;28;20499;-71
2023/05/07 11:36:47;;;;;;;26.38;19.02;;;17.10;99.90;;;;;;5095692;28;20040;-70
2023/05/07 11:39:28;;;;;;;21.27;18.48;;;17.60;99.90;;;;;;5095274;28;20078;-69
2023/05/07 11:41:54;;;;;;;23.35;19.35;;;17.70;99.90;;;;;;5095052;28;20044;-71
2023/05/07 11:44:20;;;;;;;22.95;19.23;;;17.50;99.90;;;;;;5095566;28;20047;-70
2023/05/07 11:46:46;;;;;;;22.15;18.45;;;19.70;99.90;;;;;;5094792;28;20044;-71
2023/05/07 11:49:12;;;;;;;24.33;19.35;;;17.90;99.90;;;;;;5092751;28;20051;-70
2023/05/07 11:51:39;;;;;;;22.17;18.25;;;17.80;99.90;;;;;;5095039;28;20051;-75
2023/05/07 11:54:08;;;;;;;21.77;18.05;;;17.70;99.90;;;;;;5095312;28;20369;-72
2023/05/07 11:56:35;;;;;;;20.33;17.52;;;17.20;99.90;;;;;;5095088;28;20126;-71
2023/05/07 11:59:01;;;;;;;20.52;17.08;;;18.00;99.90;;;;;;5094479;28;20450;-70
2023/05/07 12:01:27;;;;;;;24.33;19.10;;;18.10;99.90;;;;;;5095159;28;20403;-73
2023/05/07 12:03:52;;;;;;;22.65;17.85;;;17.80;99.90;;;;;;5095037;28;20048;-73
2023/05/07 12:06:18;;;;;;;21.77;18.88;;;18.10;99.90;;;;;;5095370;28;20111;-72
2023/05/07 12:08:45;;;;;;;20.25;17.70;;;18.10;99.90;;;;;;5095136;28;20036;-69
2023/05/07 12:11:18;;;;;;;21.27;16.98;;;18.10;99.90;;;;;;5093862;28;20418;-67
2023/05/07 12:13:44;;;;;;;22.67;18.48;;;18.30;99.90;;;;;;5095175;28;20093;-69
2023/05/07 12:16:10;;;;;;;21.50;18.15;;;18.00;99.90;;;;;;5094991;28;20491;-69
2023/05/07 12:18:36;;;;;;;22.23;17.95;;;18.20;99.90;;;;;;5094871;28;20051;-72
2023/05/07 12:21:04;;;;;;;22.02;19.02;;;18.10;99.90;;;;;;5094939;28;20125;-73
2023/05/07 12:23:30;;;;;;;20.67;16.98;;;18.00;99.90;;;;;;5094928;28;20043;-71
2023/05/07 12:25:56;;;;;;;22.98;17.02;;;18.30;99.90;;;;;;5094947;28;20105;-69
2023/05/07 12:28:22;;;;;;;20.23;17.80;;;18.50;99.90;;;;;;5094660;28;20047;-74
2023/05/07 12:30:50;;;;;;;18.20;16.17;;;18.60;99.90;;;;;;5094699;28;20048;-70
2023/05/07 12:33:23;;;;;;;18.58;16.13;;;18.90;99.90;;;;;;5094533;28;20058;-71